WIII/CGK METAR and TAF weather

Enter ICAO airport designator
Station Type Date Time Source
WIII METAR 2019/09/20 20:30 UTC NOAA

WIII 202030Z 19003KT 5000 HZ FEW020 26/19 Q1011 NOSIG


Station Type Date Time Source
WIII Decoded METAR 2019/09/20 20:30 UTC NOAA

Jakarta / Soekarno-Hatta, Indonesia (WIII) 06-07S 106-39E 8M
Sep 20, 2019 - 04:30 PM EDT / 2019.09.20 2030 UTC
Wind: from the S (190 degrees) at 3 MPH (3 KT):0
Visibility: 3 mile(s):0
Sky conditions: mostly clear
Weather: haze
Temperature: 78 F (26 C)
Dew Point: 66 F (19 C)
Relative Humidity: 65%
Pressure (altimeter): 29.85 in. Hg (1011 hPa)
ob: WIII 202030Z 19003KT 5000 HZ FEW020 26/19 Q1011 NOSIG
cycle: 20

Station Type Date Time Source
WIII TAF 2019/09/20 18:46 UTC NOAA

TAF WIII 201700Z 2018/2124 13004KT 5000 HZ FEW020
BECMG 2102/2104 05012KT NSW

Example: see airport list